createdAt,value
2018-06-12T00:00:03.691Z,2.80
2018-06-12T00:02:32.130Z,3.40
2018-06-12T00:05:00.766Z,3.27
2018-06-12T00:07:29.259Z,3.27
2018-06-12T00:09:57.594Z,2.77
2018-06-12T00:12:32.550Z,3.70
2018-06-12T00:15:00.987Z,2.50
2018-06-12T00:17:29.179Z,2.93
2018-06-12T00:19:57.844Z,2.87
2018-06-12T00:22:26.347Z,3.10
2018-06-12T00:24:54.725Z,3.00
2018-06-12T00:27:23.180Z,3.37
2018-06-12T00:29:51.592Z,2.70
2018-06-12T00:32:26.626Z,3.00
2018-06-12T00:34:55.056Z,3.37
2018-06-12T00:37:23.547Z,3.30
2018-06-12T00:39:51.922Z,2.60
2018-06-12T00:42:20.290Z,3.20
2018-06-12T00:44:48.686Z,3.07
2018-06-12T00:49:52.514Z,3.40
2018-06-12T00:52:21.218Z,3.57
2018-06-12T00:54:49.514Z,3.07
2018-06-12T00:57:17.847Z,3.57
2018-06-12T00:59:46.143Z,3.13
2018-06-12T01:02:14.544Z,3.90
2018-06-12T01:04:42.904Z,3.00
2018-06-12T01:07:11.237Z,3.30
2018-06-12T01:09:45.712Z,3.10
2018-06-12T01:12:14.090Z,3.40
2018-06-12T01:14:42.651Z,3.33
2018-06-12T01:17:10.967Z,3.43
2018-06-12T01:19:39.371Z,3.27
2018-06-12T01:22:07.870Z,3.03
2018-06-12T01:24:36.245Z,3.73
2018-06-12T01:27:06.142Z,3.77
2018-06-12T01:29:34.511Z,3.33
2018-06-12T01:32:02.854Z,3.13
2018-06-12T01:34:31.162Z,3.70
2018-06-12T01:36:59.615Z,3.33
2018-06-12T01:39:28.096Z,3.57
2018-06-12T01:41:56.420Z,3.43
2018-06-12T01:44:24.761Z,3.60
2018-06-12T01:46:53.083Z,3.87
2018-06-12T01:49:21.525Z,3.80
2018-06-12T01:51:49.924Z,2.97
2018-06-12T01:54:18.313Z,4.20
2018-06-12T01:56:46.633Z,3.33
2018-06-12T01:59:14.940Z,3.23
2018-06-12T02:01:43.268Z,3.77
2018-06-12T02:04:11.606Z,3.57
2018-06-12T02:06:39.919Z,3.33
2018-06-12T02:09:08.276Z,3.40
2018-06-12T02:11:43.185Z,3.20
2018-06-12T02:14:11.616Z,3.20
2018-06-12T02:16:39.903Z,3.57
2018-06-12T02:19:08.216Z,3.27
2018-06-12T02:21:36.779Z,3.50
2018-06-12T02:24:05.951Z,3.50
2018-06-12T02:26:34.320Z,2.60
2018-06-12T02:29:02.693Z,2.90
2018-06-12T02:31:31.133Z,3.70
2018-06-12T02:33:59.489Z,3.30
2018-06-12T02:36:27.952Z,2.97
2018-06-12T02:38:56.301Z,2.93
2018-06-12T02:41:24.660Z,3.27
2018-06-12T02:43:53.069Z,3.03
2018-06-12T02:46:21.484Z,3.07
2018-06-12T02:48:49.840Z,2.90
2018-06-12T02:51:18.427Z,2.93
2018-06-12T02:53:46.764Z,3.00
2018-06-12T02:56:15.096Z,2.97
2018-06-12T02:58:43.457Z,3.03
2018-06-12T03:01:11.839Z,2.83
2018-06-12T03:03:40.351Z,2.90
2018-06-12T03:06:08.793Z,2.70
2018-06-12T03:08:37.230Z,3.27
2018-06-12T03:11:05.780Z,3.13
2018-06-12T03:13:34.127Z,3.07
2018-06-12T03:16:02.571Z,2.93
2018-06-12T03:18:31.029Z,2.67
2018-06-12T03:20:59.393Z,2.83
2018-06-12T03:23:27.708Z,3.13
2018-06-12T03:25:59.055Z,2.83
2018-06-12T03:28:27.102Z,3.60
2018-06-12T03:30:55.420Z,2.80
2018-06-12T03:33:23.799Z,3.23
2018-06-12T03:35:52.138Z,3.10
2018-06-12T03:38:20.476Z,3.37
2018-06-12T03:40:48.858Z,2.50
2018-06-12T03:43:17.258Z,2.90
2018-06-12T03:45:45.684Z,3.43
2018-06-12T03:48:14.143Z,3.37
2018-06-12T03:50:42.547Z,3.40
2018-06-12T03:53:10.860Z,3.13
2018-06-12T03:55:39.260Z,2.87
2018-06-12T03:58:08.402Z,3.50
2018-06-12T04:00:36.819Z,2.47
2018-06-12T04:03:05.227Z,2.90
2018-06-12T04:05:33.589Z,2.90
2018-06-12T04:08:01.956Z,2.70
2018-06-12T04:10:30.405Z,3.10
2018-06-12T04:12:58.777Z,2.50
2018-06-12T04:15:27.294Z,2.93
2018-06-12T04:17:55.675Z,2.90
2018-06-12T04:20:24.054Z,2.57
2018-06-12T04:22:52.335Z,2.47
2018-06-12T04:25:20.817Z,2.83
2018-06-12T04:27:49.135Z,2.57
2018-06-12T04:30:17.457Z,2.83
2018-06-12T04:32:45.885Z,2.67
2018-06-12T04:35:14.497Z,2.17
2018-06-12T04:37:43.045Z,2.30
2018-06-12T04:40:11.702Z,2.37
2018-06-12T04:42:40.294Z,2.77
2018-06-12T04:45:09.015Z,2.27
2018-06-12T04:47:37.436Z,2.50
2018-06-12T04:50:05.640Z,2.27
2018-06-12T04:52:34.154Z,2.73
2018-06-12T04:55:02.687Z,2.50
2018-06-12T04:57:31.070Z,2.40
2018-06-12T04:59:59.517Z,2.47
2018-06-12T05:02:27.891Z,2.67
2018-06-12T05:04:56.375Z,2.67
2018-06-12T05:07:24.766Z,2.53
2018-06-12T05:09:53.185Z,2.30
2018-06-12T05:12:21.493Z,2.67
2018-06-12T05:14:49.940Z,2.30
2018-06-12T05:17:18.665Z,2.33
2018-06-12T05:19:47.075Z,2.10
2018-06-12T05:22:15.464Z,1.97
2018-06-12T05:24:44.093Z,2.90
2018-06-12T05:27:12.713Z,2.40
2018-06-12T05:29:41.368Z,2.20
2018-06-12T05:32:10.180Z,2.47
2018-06-12T05:34:38.703Z,2.57
2018-06-12T05:37:07.227Z,2.60
2018-06-12T05:39:35.743Z,2.43
2018-06-12T05:42:04.112Z,2.13
2018-06-12T05:44:32.437Z,2.63
2018-06-12T05:47:00.794Z,2.53
2018-06-12T05:49:29.142Z,2.33
2018-06-12T05:51:57.520Z,2.40
2018-06-12T05:54:26.008Z,2.30
2018-06-12T05:56:54.412Z,2.43
2018-06-12T05:59:22.760Z,2.60
2018-06-12T06:01:51.113Z,2.90
2018-06-12T06:04:19.510Z,2.53
2018-06-12T06:06:47.932Z,2.13
2018-06-12T06:09:16.024Z,2.50
2018-06-12T06:11:44.377Z,2.40
2018-06-12T06:14:12.826Z,2.70
2018-06-12T06:16:41.295Z,2.23
2018-06-12T06:19:09.748Z,2.70
2018-06-12T06:21:38.103Z,2.30
2018-06-12T06:24:06.471Z,2.53
2018-06-12T06:26:35.784Z,2.30
2018-06-12T06:29:04.105Z,3.07
2018-06-12T06:31:32.452Z,2.63
2018-06-12T06:34:00.823Z,2.37
2018-06-12T06:36:29.147Z,1.97
2018-06-12T06:38:57.437Z,2.30
2018-06-12T06:41:25.778Z,3.30
2018-06-12T06:43:54.189Z,2.33
2018-06-12T06:46:22.523Z,2.23
2018-06-12T06:48:50.904Z,2.60
2018-06-12T06:51:19.319Z,2.57
2018-06-12T06:53:47.670Z,2.50
2018-06-12T06:56:16.045Z,2.40
2018-06-12T06:58:44.463Z,2.20
2018-06-12T07:01:12.920Z,2.40
2018-06-12T07:03:41.252Z,2.40
2018-06-12T07:06:09.687Z,2.60
2018-06-12T07:08:38.116Z,1.90
2018-06-12T07:11:06.497Z,2.67
2018-06-12T07:13:34.830Z,2.47
2018-06-12T07:16:03.153Z,2.03
2018-06-12T07:18:31.504Z,2.37
2018-06-12T07:21:07.742Z,2.40
2018-06-12T07:23:36.170Z,2.10
2018-06-12T07:26:04.524Z,2.30
2018-06-12T07:28:32.812Z,1.83
2018-06-12T07:31:01.170Z,2.50
2018-06-12T07:33:29.524Z,2.40
2018-06-12T07:35:57.910Z,2.00
2018-06-12T07:38:26.193Z,2.23
2018-06-12T07:40:54.545Z,2.13
2018-06-12T07:43:22.909Z,2.20
2018-06-12T07:45:51.279Z,2.30
2018-06-12T07:48:19.632Z,2.50
2018-06-12T07:50:47.958Z,2.50
2018-06-12T07:53:16.325Z,2.40
2018-06-12T07:55:44.630Z,2.43
2018-06-12T07:58:13.141Z,2.07
2018-06-12T08:00:41.484Z,2.27
2018-06-12T08:03:09.837Z,2.03
2018-06-12T08:05:38.244Z,2.40
2018-06-12T08:08:06.730Z,2.30
2018-06-12T08:10:35.255Z,2.33
2018-06-12T08:13:03.658Z,2.50
2018-06-12T08:15:31.998Z,2.23
2018-06-12T08:18:00.334Z,2.30
2018-06-12T08:20:28.681Z,2.17
2018-06-12T08:22:57.056Z,2.33
2018-06-12T08:25:31.787Z,2.20
2018-06-12T08:28:00.164Z,2.30
2018-06-12T08:30:28.625Z,2.17
2018-06-12T08:32:57.028Z,2.47
2018-06-12T08:35:25.463Z,2.20
2018-06-12T08:37:53.857Z,2.27
2018-06-12T08:40:22.196Z,2.40
2018-06-12T08:42:50.683Z,2.33
2018-06-12T08:45:19.011Z,2.33
2018-06-12T08:47:47.568Z,2.50
2018-06-12T08:50:16.007Z,2.50
2018-06-12T08:52:44.304Z,2.50
2018-06-12T08:55:12.667Z,1.97
2018-06-12T08:57:41.019Z,2.60
2018-06-12T09:00:09.334Z,2.37
2018-06-12T09:02:37.889Z,2.17
2018-06-12T09:05:06.276Z,2.33
2018-06-12T09:07:34.759Z,2.33
2018-06-12T09:10:03.672Z,2.00
2018-06-12T09:12:32.181Z,2.40
2018-06-12T09:15:00.700Z,2.00
2018-06-12T09:17:29.116Z,2.00
2018-06-12T09:19:57.515Z,1.97
2018-06-12T09:22:26.077Z,2.47
2018-06-12T09:24:54.343Z,2.00
2018-06-12T09:27:22.650Z,2.03
2018-06-12T09:29:50.983Z,2.07
2018-06-12T09:32:19.360Z,1.80
2018-06-12T09:34:47.683Z,2.07
2018-06-12T09:37:16.195Z,2.00
2018-06-12T09:39:44.518Z,2.20
2018-06-12T09:42:12.873Z,2.00
2018-06-12T09:44:41.357Z,1.80
2018-06-12T09:47:09.820Z,1.90
2018-06-12T09:49:38.152Z,2.20
2018-06-12T09:52:06.620Z,1.80
2018-06-12T09:54:35.031Z,1.80
2018-06-12T09:57:03.561Z,1.83
2018-06-12T09:59:32.034Z,1.90
2018-06-12T10:02:00.380Z,1.50
2018-06-12T10:04:28.681Z,1.43
2018-06-12T10:06:57.693Z,1.90
2018-06-12T10:09:26.062Z,1.60
2018-06-12T10:11:54.524Z,1.70
2018-06-12T10:14:22.882Z,1.67
2018-06-12T10:16:51.251Z,2.10
2018-06-12T10:19:19.610Z,1.70
2018-06-12T10:21:47.916Z,2.00
2018-06-12T10:24:16.522Z,2.17
2018-06-12T10:26:44.948Z,2.10
2018-06-12T10:29:13.246Z,2.03
2018-06-12T10:31:41.606Z,2.03
2018-06-12T10:34:10.053Z,1.87
2018-06-12T10:36:41.273Z,2.07
2018-06-12T10:39:10.240Z,1.90
2018-06-12T10:41:38.847Z,2.00
2018-06-12T10:44:07.425Z,2.03
2018-06-12T10:46:35.768Z,2.10
2018-06-12T10:49:04.100Z,1.90
2018-06-12T10:51:32.477Z,2.20
2018-06-12T10:54:00.883Z,2.10
2018-06-12T10:56:29.256Z,2.63
2018-06-12T10:58:57.516Z,2.27
2018-06-12T11:01:25.838Z,2.20
2018-06-12T11:03:54.235Z,2.00
2018-06-12T11:06:22.577Z,2.00
2018-06-12T11:08:50.873Z,2.23
2018-06-12T11:11:18.920Z,2.23
2018-06-12T11:13:47.284Z,2.43
2018-06-12T11:16:15.646Z,2.80
2018-06-12T11:18:44.253Z,2.53
2018-06-12T11:21:12.677Z,2.90
2018-06-12T11:23:41.038Z,4.20
2018-06-12T11:26:09.365Z,3.73
2018-06-12T11:28:37.894Z,3.63
2018-06-12T11:31:06.539Z,4.87
2018-06-12T11:33:34.911Z,3.00
2018-06-12T11:36:03.210Z,2.50
2018-06-12T11:38:31.648Z,2.50
2018-06-12T11:40:59.970Z,2.57
2018-06-12T11:43:28.455Z,2.40
2018-06-12T11:45:57.055Z,2.30
2018-06-12T11:48:25.420Z,2.53
2018-06-12T11:50:54.375Z,2.20
2018-06-12T11:53:23.165Z,2.27
2018-06-12T11:55:52.692Z,2.43
2018-06-12T11:58:21.027Z,2.30
2018-06-12T12:00:49.415Z,2.63
2018-06-12T12:03:18.198Z,2.37
2018-06-12T12:05:46.603Z,2.20
2018-06-12T12:08:15.113Z,2.23
2018-06-12T12:10:43.509Z,2.60
2018-06-12T12:13:11.875Z,2.47
2018-06-12T12:15:40.217Z,2.17
2018-06-12T12:18:08.626Z,2.47
2018-06-12T12:20:37.092Z,2.87
2018-06-12T12:23:05.723Z,2.93
2018-06-12T12:25:34.112Z,3.27
2018-06-12T12:28:02.364Z,3.37
2018-06-12T12:30:30.760Z,4.00
2018-06-12T12:32:59.089Z,3.73
2018-06-12T12:35:27.475Z,3.27
2018-06-12T12:37:55.893Z,3.90
2018-06-12T12:40:24.291Z,3.40
2018-06-12T12:42:52.599Z,3.63
2018-06-12T12:45:21.112Z,3.60
2018-06-12T12:47:49.459Z,3.50
2018-06-12T12:50:17.796Z,3.03
2018-06-12T12:52:46.122Z,4.17
2018-06-12T12:55:14.664Z,3.03
2018-06-12T12:57:43.280Z,3.57
2018-06-12T13:00:11.619Z,3.87
2018-06-12T13:02:40.030Z,3.70
2018-06-12T13:05:08.344Z,3.57
2018-06-12T13:07:36.721Z,4.13
2018-06-12T13:10:05.145Z,3.77
2018-06-12T13:12:33.523Z,3.83
2018-06-12T13:15:01.817Z,3.93
2018-06-12T13:17:30.224Z,3.37
2018-06-12T13:19:58.618Z,3.33
2018-06-12T13:22:28.772Z,3.30
2018-06-12T13:24:57.214Z,3.77
2018-06-12T13:27:25.829Z,3.33
2018-06-12T13:29:54.182Z,3.30
2018-06-12T13:32:22.577Z,3.53
2018-06-12T13:34:50.923Z,3.60
2018-06-12T13:37:19.445Z,3.23
2018-06-12T13:39:47.822Z,2.83
2018-06-12T13:42:16.168Z,3.17
2018-06-12T13:44:44.527Z,3.17
2018-06-12T13:47:12.848Z,3.10
2018-06-12T13:49:41.241Z,3.10
2018-06-12T13:52:09.558Z,2.97
2018-06-12T13:54:38.004Z,3.50
2018-06-12T13:57:06.406Z,3.27
2018-06-12T13:59:34.858Z,2.73
2018-06-12T14:02:03.236Z,3.10
2018-06-12T14:04:31.788Z,3.13
2018-06-12T14:07:00.128Z,3.47
2018-06-12T14:09:28.665Z,3.00
2018-06-12T14:11:57.073Z,2.80
2018-06-12T14:14:25.537Z,2.57
2018-06-12T14:16:54.167Z,3.10
2018-06-12T14:19:22.803Z,3.37
2018-06-12T14:21:51.228Z,3.00
2018-06-12T14:24:19.763Z,2.80
2018-06-12T14:26:48.152Z,3.13
2018-06-12T14:29:16.680Z,3.30
2018-06-12T14:31:44.968Z,2.83
2018-06-12T14:34:13.316Z,2.90
2018-06-12T14:36:41.655Z,2.80
2018-06-12T14:39:10.072Z,2.87
2018-06-12T14:41:39.480Z,2.80
2018-06-12T14:44:08.054Z,2.60
2018-06-12T14:46:36.485Z,2.73
2018-06-12T14:49:04.937Z,3.33
2018-06-12T14:51:33.344Z,3.30
2018-06-12T14:54:01.834Z,2.87
2018-06-12T14:56:30.315Z,2.70
2018-06-12T14:58:58.651Z,2.50
2018-06-12T15:01:27.045Z,3.67
2018-06-12T15:03:55.683Z,2.30
2018-06-12T15:06:24.476Z,2.43
2018-06-12T15:08:52.826Z,2.43
2018-06-12T15:11:21.012Z,2.37
2018-06-12T15:13:49.448Z,2.57
2018-06-12T15:16:17.829Z,2.03
2018-06-12T15:18:46.134Z,2.00
2018-06-12T15:21:14.515Z,2.23
2018-06-12T15:23:43.495Z,2.30
2018-06-12T15:26:11.902Z,2.30
2018-06-12T15:28:40.639Z,2.13
2018-06-12T15:31:09.194Z,1.90
2018-06-12T15:33:37.629Z,1.97
2018-06-12T15:36:06.102Z,1.77
2018-06-12T15:38:34.642Z,1.87
2018-06-12T15:41:03.063Z,2.10
2018-06-12T15:43:31.754Z,2.13
2018-06-12T15:46:00.258Z,2.27
2018-06-12T15:48:28.640Z,2.20
2018-06-12T15:50:56.992Z,2.10
2018-06-12T15:53:25.588Z,1.87
2018-06-12T15:55:53.978Z,2.17
2018-06-12T15:58:22.351Z,2.27
2018-06-12T16:00:50.787Z,2.40
2018-06-12T16:03:19.151Z,2.53
2018-06-12T16:05:47.541Z,2.07
2018-06-12T16:08:15.892Z,1.90
2018-06-12T16:10:44.313Z,1.93
2018-06-12T16:13:12.679Z,2.00
2018-06-12T16:15:41.133Z,2.47
2018-06-12T16:18:09.810Z,2.47
2018-06-12T16:20:38.553Z,2.63
2018-06-12T16:23:07.050Z,2.77
2018-06-12T16:25:35.614Z,2.50
2018-06-12T16:28:04.428Z,2.50
2018-06-12T16:30:32.809Z,2.30
2018-06-12T16:33:01.279Z,2.20
2018-06-12T16:35:30.030Z,2.17
2018-06-12T16:37:58.481Z,2.40
2018-06-12T16:40:27.042Z,2.10
2018-06-12T16:42:55.610Z,2.67
2018-06-12T16:45:24.086Z,2.07
2018-06-12T16:47:52.455Z,2.13
2018-06-12T16:50:20.818Z,2.63
2018-06-12T16:52:49.116Z,2.30
2018-06-12T16:55:17.477Z,2.33
2018-06-12T16:57:45.880Z,2.30
2018-06-12T17:00:14.247Z,2.07
2018-06-12T17:02:42.940Z,2.30
2018-06-12T17:05:11.586Z,2.33
2018-06-12T17:07:40.200Z,2.50
2018-06-12T17:10:10.793Z,2.03
2018-06-12T17:12:39.538Z,2.00
2018-06-12T17:15:08.088Z,2.13
2018-06-12T17:17:36.875Z,2.00
2018-06-12T17:20:05.333Z,2.00
2018-06-12T17:22:33.953Z,1.73
2018-06-12T17:25:02.697Z,2.07
2018-06-12T17:27:31.326Z,1.80
2018-06-12T17:30:00.095Z,2.00
2018-06-12T17:32:28.452Z,2.13
2018-06-12T17:34:56.884Z,2.23
2018-06-12T17:37:25.291Z,1.70
2018-06-12T17:39:53.713Z,1.77
2018-06-12T17:42:22.192Z,2.60
2018-06-12T17:44:50.536Z,1.97
2018-06-12T17:47:18.953Z,2.00
2018-06-12T17:49:47.523Z,2.40
2018-06-12T17:52:15.903Z,1.90
2018-06-12T17:54:44.387Z,2.10
2018-06-12T17:57:12.877Z,2.10
2018-06-12T17:59:41.340Z,2.20
2018-06-12T18:02:09.914Z,2.40
2018-06-12T18:04:38.581Z,1.87
2018-06-12T18:07:07.224Z,1.90
2018-06-12T18:09:36.048Z,2.20
2018-06-12T18:12:04.640Z,2.60
2018-06-12T18:14:33.419Z,3.17
2018-06-12T18:17:01.848Z,2.90
2018-06-12T18:19:30.313Z,2.17
2018-06-12T18:21:58.721Z,2.30
2018-06-12T18:24:27.342Z,1.70
2018-06-12T18:26:55.685Z,1.80
2018-06-12T18:29:24.208Z,1.90
2018-06-12T18:31:52.647Z,2.07
2018-06-12T18:34:22.160Z,2.10
2018-06-12T18:36:50.969Z,1.73
2018-06-12T18:39:19.299Z,1.77
2018-06-12T18:41:47.687Z,1.60
2018-06-12T18:44:15.739Z,1.80
2018-06-12T18:46:44.354Z,1.70
2018-06-12T18:49:12.883Z,1.80
2018-06-12T18:51:41.367Z,1.67
2018-06-12T18:54:09.853Z,2.27
2018-06-12T18:56:38.295Z,1.53
2018-06-12T18:59:06.667Z,1.80
2018-06-12T19:01:35.165Z,2.00
2018-06-12T19:04:03.625Z,1.77
2018-06-12T19:06:32.081Z,1.70
2018-06-12T19:09:00.823Z,1.60
2018-06-12T19:11:29.495Z,1.50
2018-06-12T19:13:58.015Z,1.60
2018-06-12T19:16:26.381Z,1.70
2018-06-12T19:18:54.729Z,1.50
2018-06-12T19:21:23.229Z,1.30
2018-06-12T19:23:51.579Z,2.03
2018-06-12T19:26:20.461Z,1.70
2018-06-12T19:28:49.003Z,1.60
2018-06-12T19:31:17.417Z,1.60
2018-06-12T19:33:45.825Z,1.80
2018-06-12T19:36:14.272Z,1.77
2018-06-12T19:38:43.130Z,1.70
2018-06-12T19:41:11.622Z,1.80
2018-06-12T19:43:40.237Z,1.93
2018-06-12T19:46:08.732Z,2.23
2018-06-12T19:48:37.295Z,1.83
2018-06-12T19:51:06.097Z,1.90
2018-06-12T19:53:34.679Z,1.83
2018-06-12T19:56:03.307Z,1.63
2018-06-12T19:58:32.168Z,1.93
2018-06-12T20:01:00.841Z,2.13
2018-06-12T20:03:29.373Z,2.07
2018-06-12T20:05:57.835Z,2.23
2018-06-12T20:08:26.199Z,2.23
2018-06-12T20:10:54.557Z,1.80
2018-06-12T20:13:22.991Z,2.20
2018-06-12T20:15:51.485Z,1.90
2018-06-12T20:18:20.311Z,1.73
2018-06-12T20:20:48.683Z,1.40
2018-06-12T20:23:17.132Z,1.43
2018-06-12T20:25:45.824Z,1.63
2018-06-12T20:28:14.228Z,1.40
2018-06-12T20:30:42.912Z,1.33
2018-06-12T20:33:11.350Z,1.70
2018-06-12T20:35:39.906Z,1.30
2018-06-12T20:38:08.594Z,1.20
2018-06-12T20:40:37.360Z,1.70
2018-06-12T20:43:06.188Z,1.30
2018-06-12T20:45:34.674Z,1.60
2018-06-12T20:48:03.145Z,1.60
2018-06-12T20:50:32.019Z,1.60
2018-06-12T20:53:00.485Z,1.13
2018-06-12T20:55:29.008Z,1.40
2018-06-12T20:57:58.098Z,1.10
2018-06-12T21:00:26.450Z,1.20
2018-06-12T21:02:54.875Z,1.50
2018-06-12T21:05:23.405Z,1.33
2018-06-12T21:07:51.868Z,1.40
2018-06-12T21:10:20.270Z,1.30
2018-06-12T21:12:48.616Z,1.37
2018-06-12T21:15:16.981Z,1.20
2018-06-12T21:17:45.348Z,1.40
2018-06-12T21:20:13.915Z,1.50
2018-06-12T21:22:42.328Z,1.20
2018-06-12T21:25:10.849Z,1.30
2018-06-12T21:27:39.176Z,1.40
2018-06-12T21:30:07.643Z,1.30
2018-06-12T21:32:36.595Z,1.43
2018-06-12T21:35:05.144Z,1.23
2018-06-12T21:37:33.743Z,1.30
2018-06-12T21:40:02.213Z,1.30
2018-06-12T21:42:30.779Z,1.10
2018-06-12T21:44:59.335Z,1.37
2018-06-12T21:47:27.741Z,1.27
2018-06-12T21:49:56.143Z,1.40
2018-06-12T21:52:24.526Z,1.13
2018-06-12T21:54:53.069Z,1.23
2018-06-12T21:57:21.743Z,1.60
2018-06-12T21:59:51.516Z,1.20
2018-06-12T22:02:19.898Z,1.30
2018-06-12T22:04:48.253Z,1.30
2018-06-12T22:07:16.673Z,1.20
2018-06-12T22:09:46.558Z,1.40
2018-06-12T22:12:14.977Z,1.23
2018-06-12T22:14:43.438Z,1.10
2018-06-12T22:17:13.002Z,1.70
2018-06-12T22:19:41.436Z,1.10
2018-06-12T22:22:09.953Z,1.13
2018-06-12T22:24:38.453Z,1.30
2018-06-12T22:27:06.892Z,2.27
2018-06-12T22:29:36.153Z,1.10
2018-06-12T22:32:04.658Z,1.27
2018-06-12T22:34:33.588Z,1.70
2018-06-12T22:37:01.971Z,1.20
2018-06-12T22:39:45.113Z,1.57
2018-06-12T22:42:13.641Z,1.70
2018-06-12T22:47:30.690Z,1.67
2018-06-12T22:49:59.181Z,1.80
2018-06-12T22:52:27.602Z,1.60
2018-06-12T22:54:55.915Z,1.67
2018-06-12T22:57:24.248Z,1.73
2018-06-12T22:59:52.603Z,1.93
2018-06-12T23:02:20.929Z,2.10
2018-06-12T23:04:49.426Z,1.80
2018-06-12T23:07:17.781Z,1.70
2018-06-12T23:09:46.070Z,2.00
2018-06-12T23:12:14.681Z,2.40
2018-06-12T23:14:43.084Z,2.40
2018-06-12T23:17:11.569Z,2.23
2018-06-12T23:19:51.064Z,2.03
2018-06-12T23:22:19.395Z,1.90
2018-06-12T23:24:47.831Z,2.00
2018-06-12T23:27:16.209Z,1.87
2018-06-12T23:29:44.515Z,1.87
2018-06-12T23:32:12.868Z,2.20
2018-06-12T23:34:41.429Z,2.00
2018-06-12T23:37:09.892Z,2.17
2018-06-12T23:39:38.289Z,2.27
2018-06-12T23:42:06.580Z,1.80
2018-06-12T23:44:35.036Z,1.83
2018-06-12T23:47:03.396Z,2.30
2018-06-12T23:49:32.113Z,2.30
2018-06-12T23:52:00.416Z,1.77
2018-06-12T23:54:28.758Z,2.13
2018-06-12T23:56:57.143Z,2.60
2018-06-12T23:59:25.787Z,2.13
